Time;durP1;ratioP1;P1;durP2;ratioP2;P2;SDS_P1;SDS_P2;PMS_P1;PMS_P2;Temp;Humidity;BMP_temperature;BMP_pressure;BME280_temperature;BME280_humidity;BME280_pressure;Samples;Min_cycle;Max_cycle;Signal;HPM_P1;HPM_P2
2022/05/24 00:02:06;;;;;;;2.43;2.20;;;;;;;19.65;73.17;99290.63;4971031;28;20465;-72
2022/05/24 00:04:32;;;;;;;2.40;2.30;;;;;;;19.61;73.40;99291.59;4984655;28;20494;-72
2022/05/24 00:06:58;;;;;;;3.05;2.15;;;;;;;19.56;73.10;99298.09;4963389;28;20543;-72
2022/05/24 00:09:26;;;;;;;2.33;2.22;;;;;;;19.51;73.47;99300.22;4973506;28;20408;-72
2022/05/24 00:11:52;;;;;;;2.20;2.00;;;;;;;19.44;73.70;99303.50;4971477;28;20444;-72
2022/05/24 00:15:19;;;;;;;2.40;2.20;;;;;;;19.45;73.86;99296.06;4975723;28;20448;-72
2022/05/24 00:17:03;;;;;;;2.60;2.50;;;;;;;19.45;73.84;99296.88;4964635;28;20409;-72
2022/05/24 00:19:28;;;;;;;2.65;2.55;;;;;;;19.48;73.84;99295.41;4980807;28;20498;-72
2022/05/24 00:21:54;;;;;;;2.77;2.57;;;;;;;19.49;73.82;99295.09;4971614;28;20757;-72
2022/05/24 00:24:19;;;;;;;2.40;2.30;;;;;;;19.50;73.96;99293.13;4972593;28;20404;-72
2022/05/24 00:26:44;;;;;;;2.63;2.53;;;;;;;19.50;73.65;99284.88;4964954;28;20448;-72
2022/05/24 00:29:09;;;;;;;2.70;2.60;;;;;;;19.50;73.52;99277.44;4970668;28;20415;-72
2022/05/24 00:31:35;;;;;;;2.83;2.60;;;;;;;19.49;73.67;99280.53;4971506;28;20420;-72
2022/05/24 00:34:00;;;;;;;3.30;2.70;;;;;;;19.48;74.02;99279.72;4966150;28;20430;-73
2022/05/24 00:36:25;;;;;;;2.30;2.20;;;;;;;19.45;74.18;99274.91;4970069;28;20414;-72
2022/05/24 00:38:50;;;;;;;3.33;2.83;;;;;;;19.40;74.30;99276.97;4972446;28;20412;-72
2022/05/24 00:41:27;;;;;;;2.83;2.63;;;;;;;19.34;74.53;99281.84;4968923;28;20458;-72
2022/05/24 00:44:08;;;;;;;2.75;2.65;;;;;;;19.36;74.30;99276.06;4972006;28;20471;-72
2022/05/24 00:46:48;;;;;;;2.83;2.67;;;;;;;19.36;74.04;99276.84;4971067;28;20428;-72
2022/05/24 00:49:20;;;;;;;3.10;2.67;;;;;;;19.37;73.96;99270.22;4969019;28;20500;-72
2022/05/24 00:51:54;;;;;;;3.22;3.03;;;;;;;19.34;74.10;99276.38;4964458;28;20410;-72
2022/05/24 00:54:20;;;;;;;3.03;2.83;;;;;;;19.26;74.04;99274.47;4970508;28;20439;-72
2022/05/24 00:56:52;;;;;;;3.83;3.53;;;;;;;19.27;73.35;99275.25;4970485;28;20408;-72
2022/05/24 00:59:35;;;;;;;3.53;2.92;;;;;;;19.25;73.25;99277.53;4975288;28;20919;-72
2022/05/24 01:02:01;;;;;;;3.58;3.00;;;;;;;19.21;73.70;99274.66;4962254;28;20416;-72
2022/05/24 01:04:26;;;;;;;3.13;2.93;;;;;;;19.17;73.86;99262.72;4977532;28;20408;-72
2022/05/24 01:06:52;;;;;;;3.70;3.50;;;;;;;19.15;73.66;99265.81;4970473;28;20423;-72
2022/05/24 01:09:35;;;;;;;3.47;3.15;;;;;;;19.10;73.64;99268.72;4975971;28;20404;-72
2022/05/24 01:12:09;;;;;;;3.57;3.27;;;;;;;19.09;73.30;99272.63;4974550;28;20469;-72
2022/05/24 01:14:35;;;;;;;3.60;3.30;;;;;;;19.11;73.23;99273.09;4972902;28;20420;-72
2022/05/24 01:17:02;;;;;;;3.40;3.15;;;;;;;19.10;73.54;99276.16;4971511;28;20520;-72
2022/05/24 01:19:44;;;;;;;3.33;3.13;;;;;;;19.05;73.94;99265.34;4974625;28;20412;-72
2022/05/24 01:22:35;;;;;;;3.33;3.13;;;;;;;19.00;73.98;99258.09;4960598;28;20451;-72
2022/05/24 01:25:10;;;;;;;3.58;3.28;;;;;;;18.97;74.10;99253.25;4971261;28;20412;-72
2022/05/24 01:27:36;;;;;;;3.58;3.28;;;;;;;18.94;74.43;99253.94;4971953;28;20412;-72
2022/05/24 01:30:04;;;;;;;3.92;3.28;;;;;;;18.94;74.23;99250.38;4989951;28;20466;-72
2022/05/24 01:38:01;;;;;;;2.50;2.40;;;;;;;18.80;74.05;99238.81;4963318;28;21017;-72
2022/05/24 01:40:27;;;;;;;2.45;2.25;;;;;;;18.77;74.19;99234.78;4978889;28;20412;-72
2022/05/24 01:42:52;;;;;;;3.15;2.75;;;;;;;18.74;74.06;99245.63;4970920;28;20452;-72
2022/05/24 01:45:25;;;;;;;2.87;2.67;;;;;;;18.71;74.01;99243.50;4973969;28;20965;-72
2022/05/24 01:47:56;;;;;;;4.72;3.63;;;;;;;18.67;74.04;99241.41;4967406;28;20839;-72
2022/05/24 01:50:22;;;;;;;2.42;2.33;;;;;;;18.66;73.92;99244.50;4972884;28;20498;-72
2022/05/24 01:52:55;;;;;;;4.30;2.80;;;;;;;18.65;74.18;99238.22;4971814;28;20906;-72
2022/05/24 01:55:41;;;;;;;3.05;2.75;;;;;;;18.63;74.02;99247.91;4975334;28;20407;-72
2022/05/24 01:58:12;;;;;;;2.92;2.72;;;;;;;18.61;74.27;99241.94;4964962;28;20406;-72
2022/05/24 02:00:43;;;;;;;3.13;2.83;;;;;;;18.58;74.24;99240.66;4976634;28;20410;-72
2022/05/24 02:03:09;;;;;;;2.90;2.65;;;;;;;18.55;74.22;99245.97;4974031;28;20415;-72
2022/05/24 02:05:37;;;;;;;3.60;2.70;;;;;;;18.57;74.37;99243.72;4974174;28;20883;-72
2022/05/24 02:08:07;;;;;;;5.63;3.28;;;;;;;18.60;73.88;99243.88;4973998;28;20416;-72
2022/05/24 02:10:45;;;;;;;3.20;2.95;;;;;;;18.63;74.24;99242.44;4980331;28;20472;-72
2022/05/24 02:13:14;;;;;;;2.90;2.70;;;;;;;18.61;74.38;99237.25;4966810;28;20771;-72
2022/05/24 02:15:46;;;;;;;3.22;2.92;;;;;;;18.59;74.34;99236.78;4974242;28;20404;-72
2022/05/24 02:18:15;;;;;;;4.73;3.00;;;;;;;18.57;74.60;99236.28;4975729;28;20623;-73
2022/05/24 02:20:43;;;;;;;2.80;2.70;;;;;;;18.48;74.54;99235.47;4976434;28;20411;-72
2022/05/24 02:23:11;;;;;;;3.40;3.20;;;;;;;18.47;74.69;99242.13;4959840;28;20422;-72
2022/05/24 02:25:39;;;;;;;3.40;3.30;;;;;;;18.54;74.44;99230.66;4973310;28;20759;-72
2022/05/24 02:28:10;;;;;;;4.03;3.22;;;;;;;18.57;74.12;99230.78;4970197;28;20500;-72
2022/05/24 02:30:45;;;;;;;3.30;3.05;;;;;;;18.60;73.80;99224.69;4976948;28;20385;-72
2022/05/24 02:33:11;;;;;;;3.35;3.05;;;;;;;18.62;73.85;99213.38;4961167;28;20439;-72
2022/05/24 02:35:37;;;;;;;3.87;3.57;;;;;;;18.62;73.61;99219.66;4971900;28;20451;-72
2022/05/24 02:38:02;;;;;;;3.33;3.03;;;;;;;18.60;73.79;99215.63;4977925;28;20415;-72
2022/05/24 02:43:12;;;;;;;4.43;3.05;;;;;;;18.56;74.40;99218.22;4978495;28;20411;-72
2022/05/24 02:45:37;;;;;;;2.87;2.60;;;;;;;18.55;74.43;99219.34;4981381;28;20503;-72
2022/05/24 02:48:02;;;;;;;2.95;2.83;;;;;;;18.55;74.33;99215.81;4962714;28;20507;-72
2022/05/24 02:50:28;;;;;;;3.30;3.20;;;;;;;18.54;74.18;99219.69;4972967;28;20428;-72
2022/05/24 02:52:53;;;;;;;3.45;3.28;;;;;;;18.50;74.11;99222.28;4963059;28;20905;-72
2022/05/24 02:55:20;;;;;;;4.10;3.50;;;;;;;18.51;74.28;99223.88;4973879;28;20975;-72
2022/05/24 02:57:46;;;;;;;3.30;3.03;;;;;;;18.51;74.14;99228.56;4970442;28;20779;-72
2022/05/24 03:00:18;;;;;;;5.03;3.50;;;;;;;18.50;73.90;99236.00;5000721;28;20414;-72
2022/05/24 03:02:44;;;;;;;3.65;2.88;;;;;;;18.48;73.98;99231.91;4964504;28;20423;-72
2022/05/24 03:05:12;;;;;;;3.40;2.80;;;;;;;18.44;74.26;99242.75;4986593;28;20416;-72
2022/05/24 03:10:22;;;;;;;3.43;3.23;;;;;;;18.40;74.58;99241.00;4980536;28;20455;-72
2022/05/24 03:15:33;;;;;;;3.30;3.00;;;;;;;18.39;74.54;99240.19;4969174;28;20942;-72
2022/05/24 03:17:59;;;;;;;4.45;2.85;;;;;;;18.38;74.62;99232.25;4966976;28;20773;-72
2022/05/24 03:20:25;;;;;;;4.70;3.40;;;;;;;18.34;74.71;99225.84;4982423;28;20412;-72
2022/05/24 03:22:50;;;;;;;3.13;2.83;;;;;;;18.30;74.89;99222.94;4972097;28;20418;-72
2022/05/24 03:25:15;;;;;;;2.63;2.50;;;;;;;18.28;74.84;99230.66;4979263;28;20400;-73
2022/05/24 03:27:41;;;;;;;5.45;2.78;;;;;;;18.26;75.14;99230.19;4981035;28;20472;-72
2022/05/24 03:30:07;;;;;;;3.57;2.70;;;;;;;18.28;75.01;99233.41;4973096;28;20882;-72
2022/05/24 03:32:33;;;;;;;4.40;2.88;;;;;;;18.29;75.06;99215.84;4972422;28;20416;-72
2022/05/24 03:35:03;;;;;;;3.40;2.70;;;;;;;18.30;75.15;99225.69;4979792;28;20412;-72
2022/05/24 03:37:28;;;;;;;2.42;2.30;;;;;;;18.27;74.91;99223.59;4974451;28;20422;-72
2022/05/24 03:39:53;;;;;;;5.17;2.70;;;;;;;18.26;75.11;99224.72;4971192;28;20776;-72
2022/05/24 03:42:19;;;;;;;2.83;2.73;;;;;;;18.27;75.06;99220.03;4968791;28;20907;-72
2022/05/24 03:44:44;;;;;;;3.58;2.70;;;;;;;18.28;74.83;99221.63;4976452;28;20410;-72
2022/05/24 03:47:09;;;;;;;5.80;2.57;;;;;;;18.27;74.82;99223.59;4974857;28;20926;-72
2022/05/24 03:49:34;;;;;;;4.13;2.37;;;;;;;18.25;74.85;99225.84;4972695;28;20400;-72
2022/05/24 03:52:00;;;;;;;4.90;2.47;;;;;;;18.23;74.76;99227.31;4968679;28;20427;-72
2022/05/24 03:54:25;;;;;;;2.43;2.33;;;;;;;18.21;74.86;99227.63;4973686;28;20459;-72
2022/05/24 03:59:34;;;;;;;2.80;2.20;;;;;;;18.22;74.84;99231.16;4958579;28;20466;-72
2022/05/24 04:01:59;;;;;;;2.65;2.10;;;;;;;18.24;74.85;99237.16;4971867;28;20534;-72
2022/05/24 04:04:25;;;;;;;2.07;1.97;;;;;;;18.26;74.97;99226.66;4989175;28;20443;-73
2022/05/24 04:06:50;;;;;;;2.27;2.17;;;;;;;18.27;74.73;99242.78;4967500;28;20449;-72
2022/05/24 04:09:16;;;;;;;2.80;2.33;;;;;;;18.26;74.82;99251.31;4980826;28;20482;-72
2022/05/24 04:11:42;;;;;;;3.40;2.90;;;;;;;18.24;75.04;99251.66;4962069;28;20443;-72
2022/05/24 04:14:07;;;;;;;4.95;2.75;;;;;;;18.27;75.32;99266.66;4950969;28;20455;-72
2022/05/24 04:16:32;;;;;;;2.77;2.23;;;;;;;18.27;75.22;99261.19;4950492;28;20437;-72
2022/05/24 04:18:58;;;;;;;3.43;2.23;;;;;;;18.26;75.32;99262.31;4954615;28;20405;-72
2022/05/24 04:21:23;;;;;;;3.80;2.20;;;;;;;18.27;75.53;99267.47;4954609;28;20449;-72
2022/05/24 04:23:49;;;;;;;2.70;2.23;;;;;;;18.25;75.53;99260.69;4954920;28;20777;-72
2022/05/24 04:26:14;;;;;;;2.33;2.13;;;;;;;18.29;75.16;99258.91;4954858;28;20893;-72
2022/05/24 04:28:39;;;;;;;2.47;2.00;;;;;;;18.36;74.72;99257.28;4953524;28;20428;-72
2022/05/24 04:31:05;;;;;;;2.50;2.30;;;;;;;18.45;74.40;99265.50;4985047;28;20745;-72
2022/05/24 04:33:30;;;;;;;3.70;2.55;;;;;;;18.47;74.32;99264.06;4953243;28;20429;-73
2022/05/24 04:35:56;;;;;;;3.13;2.73;;;;;;;18.47;74.35;99264.06;4970198;28;20416;-72
2022/05/24 04:38:22;;;;;;;2.70;2.40;;;;;;;18.46;74.62;99262.44;4952751;28;20410;-72
2022/05/24 04:43:32;;;;;;;4.43;2.50;;;;;;;18.35;75.08;99285.84;4958645;28;20547;-72
2022/05/24 04:45:57;;;;;;;2.77;2.10;;;;;;;18.34;75.00;99286.97;4958751;28;20420;-72
2022/05/24 04:48:23;;;;;;;3.33;1.80;;;;;;;18.33;74.98;99281.81;4955953;28;20469;-72
2022/05/24 04:50:53;;;;;;;1.75;1.65;;;;;;;18.33;74.81;99282.63;4956953;28;20439;-72
2022/05/24 04:53:19;;;;;;;1.83;1.55;;;;;;;18.30;74.98;99288.75;4954585;28;20420;-72
2022/05/24 04:55:44;;;;;;;2.95;1.65;;;;;;;18.32;74.58;99275.53;4959317;28;20419;-72
2022/05/24 04:58:11;;;;;;;2.30;1.53;;;;;;;18.40;74.08;99282.94;4948218;28;20447;-72
2022/05/24 05:00:37;;;;;;;5.63;1.58;;;;;;;18.45;74.26;99281.94;4956218;28;20502;-72
2022/05/24 05:03:10;;;;;;;2.90;1.40;;;;;;;18.48;74.14;99292.28;4952487;28;20489;-72
2022/05/24 05:05:36;;;;;;;3.08;1.50;;;;;;;18.47;74.05;99294.25;4968776;28;20447;-72
2022/05/24 05:08:01;;;;;;;3.20;1.47;;;;;;;18.42;74.40;99290.84;4954744;28;20481;-72
2022/05/24 05:10:26;;;;;;;2.13;1.55;;;;;;;18.39;74.44;99297.78;4953824;28;20467;-72
2022/05/24 05:12:51;;;;;;;2.40;1.50;;;;;;;18.36;74.48;99297.63;4950568;28;20427;-72
2022/05/24 05:15:17;;;;;;;1.60;1.53;;;;;;;18.36;74.63;99298.44;4968327;28;20447;-72
2022/05/24 05:17:43;;;;;;;1.40;1.30;;;;;;;18.36;74.39;99298.44;4965878;28;20933;-72
2022/05/24 05:20:08;;;;;;;2.33;1.42;;;;;;;18.34;74.29;99300.69;4960181;28;20425;-72
2022/05/24 05:22:34;;;;;;;3.20;1.50;;;;;;;18.39;74.78;99305.19;4957641;28;20539;-72
2022/05/24 05:24:59;;;;;;;1.07;1.07;;;;;;;18.43;74.73;99298.75;4962880;28;20415;-71
2022/05/24 05:27:24;;;;;;;2.83;1.40;;;;;;;18.47;74.66;99307.16;4961578;28;20474;-71
2022/05/24 05:32:33;;;;;;;1.65;1.05;;;;;;;18.41;74.35;99306.47;4961028;28;21565;-71
2022/05/24 05:35:00;;;;;;;2.92;1.45;;;;;;;18.40;74.50;99328.78;4968669;28;20416;-71
2022/05/24 05:37:28;;;;;;;2.25;1.20;;;;;;;18.40;74.76;99331.50;4966106;28;21015;-71
2022/05/24 05:39:54;;;;;;;2.75;1.35;;;;;;;18.36;74.83;99334.09;4957523;28;20499;-71
2022/05/24 05:42:20;;;;;;;3.50;1.30;;;;;;;18.37;75.15;99352.19;4959583;28;20720;-71
2022/05/24 05:44:48;;;;;;;2.30;1.07;;;;;;;18.32;74.62;99360.53;4951887;28;20416;-71
2022/05/24 05:47:13;;;;;;;0.95;0.95;;;;;;;18.29;74.34;99371.34;4963440;28;20427;-71
2022/05/24 05:49:41;;;;;;;2.70;0.90;;;;;;;18.12;73.58;99377.63;4953036;28;20417;-71
2022/05/24 05:52:06;;;;;;;2.38;1.20;;;;;;;17.93;74.04;99416.28;4965210;28;21595;-71
2022/05/24 05:54:33;;;;;;;1.25;0.30;;;;;;;17.38;71.69;99394.00;4960052;28;20509;-71
2022/05/24 05:56:59;;;;;;;1.13;0.30;;;;;;;17.37;70.21;99388.81;4960561;28;20434;-71
2022/05/24 05:59:24;;;;;;;0.80;0.30;;;;;;;17.20;69.83;99399.69;4957257;28;20417;-71
2022/05/24 06:01:50;;;;;;;3.77;0.60;;;;;;;17.25;70.68;99389.41;4971812;28;20830;-71
2022/05/24 06:04:15;;;;;;;1.27;0.60;;;;;;;17.23;70.90;99402.59;4949165;28;21179;-71
2022/05/24 06:06:44;;;;;;;1.10;0.20;;;;;;;17.17;70.74;99417.53;4950086;28;20474;-71
2022/05/24 06:09:09;;;;;;;1.30;0.40;;;;;;;17.25;71.03;99430.50;4972681;28;20487;-72
2022/05/24 06:11:34;;;;;;;2.00;0.50;;;;;;;17.23;70.84;99432.72;4950743;28;20775;-71
2022/05/24 06:14:00;;;;;;;0.60;0.60;;;;;;;17.19;70.85;99439.16;4954459;28;20531;-71
2022/05/24 06:16:25;;;;;;;1.03;0.50;;;;;;;17.29;70.83;99436.94;4958917;28;20410;-72
2022/05/24 06:18:50;;;;;;;2.20;0.20;;;;;;;17.24;71.45;99442.56;4968507;28;20484;-72
2022/05/24 06:21:16;;;;;;;0.30;0.30;;;;;;;17.26;71.48;99456.72;4962525;28;20419;-72
2022/05/24 06:23:41;;;;;;;1.10;0.20;;;;;;;17.40;71.31;99460.19;4958599;28;21033;-72
2022/05/24 06:26:08;;;;;;;0.27;0.20;;;;;;;17.51;70.10;99469.78;4957347;28;20416;-72
2022/05/24 06:28:34;;;;;;;1.17;0.38;;;;;;;17.60;70.18;99478.88;4967774;28;20764;-72
2022/05/24 06:30:59;;;;;;;0.82;0.30;;;;;;;17.59;69.52;99488.22;4965968;28;20405;-72
2022/05/24 06:33:25;;;;;;;1.43;0.37;;;;;;;17.61;69.78;99496.13;4959584;28;21030;-72
2022/05/24 06:35:50;;;;;;;0.60;0.40;;;;;;;17.60;69.92;99513.69;4967884;28;20418;-72
2022/05/24 06:38:16;;;;;;;2.00;0.30;;;;;;;17.62;70.07;99530.59;4954502;28;20785;-72
2022/05/24 06:40:42;;;;;;;1.20;0.50;;;;;;;17.62;70.28;99531.41;4963834;28;20423;-72
2022/05/24 06:43:07;;;;;;;1.90;0.30;;;;;;;17.59;70.55;99533.97;4964217;28;20424;-72
2022/05/24 06:45:33;;;;;;;0.70;0.45;;;;;;;17.54;70.88;99536.81;4969790;28;20744;-72
2022/05/24 06:47:59;;;;;;;0.70;0.50;;;;;;;17.61;71.37;99542.69;4969150;28;20433;-72
2022/05/24 06:50:25;;;;;;;3.10;0.70;;;;;;;17.56;71.85;99557.34;4968018;28;20772;-72
2022/05/24 06:52:55;;;;;;;1.65;0.60;;;;;;;17.54;72.27;99562.28;4961961;28;20757;-72
2022/05/24 06:55:21;;;;;;;3.77;0.50;;;;;;;17.46;72.22;99568.50;4962153;28;22074;-72
2022/05/24 06:57:47;;;;;;;0.37;0.37;;;;;;;17.45;72.56;99580.56;4958113;28;20424;-72
2022/05/24 07:03:07;;;;;;;0.73;0.35;;;;;;;17.00;72.75;99570.72;4957760;28;20423;-72
2022/05/24 07:05:32;;;;;;;1.70;0.38;;;;;;;17.00;73.21;99587.94;4960596;28;20431;-71
2022/05/24 07:08:00;;;;;;;2.60;0.32;;;;;;;17.23;72.96;99593.44;4962771;28;20412;-72
2022/05/24 07:10:25;;;;;;;0.90;0.20;;;;;;;17.35;72.96;99589.06;4957934;28;20887;-71
2022/05/24 07:13:03;;;;;;;1.30;0.30;;;;;;;17.46;72.20;99592.34;4956762;28;20424;-72
2022/05/24 07:15:29;;;;;;;1.65;0.60;;;;;;;17.49;71.89;99602.69;4972961;28;20436;-71
2022/05/24 07:17:54;;;;;;;1.95;0.30;;;;;;;17.50;72.77;99602.38;4957976;28;20448;-71
2022/05/24 07:20:20;;;;;;;0.47;0.47;;;;;;;17.62;72.43;99607.31;4959248;28;20577;-72
2022/05/24 07:22:48;;;;;;;2.50;0.50;;;;;;;17.60;72.66;99620.53;4959058;28;20420;-72
2022/05/24 07:25:14;;;;;;;0.28;0.25;;;;;;;17.41;73.07;99620.69;4960747;28;20410;-71
2022/05/24 07:27:39;;;;;;;0.30;0.30;;;;;;;17.36;72.89;99615.31;4959265;28;21027;-72
2022/05/24 07:30:05;;;;;;;1.08;0.43;;;;;;;17.33;72.61;99610.47;4958945;28;20424;-72
2022/05/24 07:32:31;;;;;;;1.00;0.23;;;;;;;17.48;72.73;99606.56;4958374;28;21203;-72
2022/05/24 07:34:59;;;;;;;2.28;0.30;;;;;;;17.68;72.65;99616.25;4958870;28;20432;-72
2022/05/24 07:37:24;;;;;;;1.30;0.40;;;;;;;17.85;72.57;99616.38;4959768;28;20560;-72
2022/05/24 07:45:47;;;;;;;0.43;0.37;;;;;;;17.87;70.88;99614.09;4972885;28;20922;-72
2022/05/24 07:48:03;;;;;;;1.13;0.50;;;;;;;17.80;71.76;99627.44;4962684;28;20455;-71
2022/05/24 07:50:28;;;;;;;0.55;0.32;;;;;;;17.72;71.92;99629.00;4965035;28;20402;-72
2022/05/24 07:52:54;;;;;;;0.97;0.30;;;;;;;17.82;71.73;99627.91;4984414;28;20416;-72
2022/05/24 07:55:19;;;;;;;1.50;0.53;;;;;;;17.88;71.90;99615.72;4973748;28;20811;-72
2022/05/24 07:57:45;;;;;;;0.30;0.30;;;;;;;17.95;70.69;99616.06;4965736;28;20475;-71
2022/05/24 08:00:11;;;;;;;1.85;0.40;;;;;;;18.04;69.72;99622.44;4961920;28;20428;-72
2022/05/24 08:02:36;;;;;;;0.32;0.22;;;;;;;18.23;68.88;99625.75;4965125;28;20454;-72
2022/05/24 08:05:01;;;;;;;1.30;0.50;;;;;;;18.18;68.76;99627.84;4970575;28;20852;-72
2022/05/24 08:07:26;;;;;;;1.10;0.30;;;;;;;18.21;68.48;99632.69;4966546;28;20470;-72
2022/05/24 08:09:52;;;;;;;1.23;0.40;;;;;;;18.29;67.91;99634.66;4965096;28;20507;-71
2022/05/24 08:12:17;;;;;;;0.70;0.40;;;;;;;18.24;66.35;99643.03;4967765;28;20412;-72
2022/05/24 08:14:42;;;;;;;1.13;0.37;;;;;;;18.14;66.78;99641.38;4968614;28;20451;-72
2022/05/24 08:17:09;;;;;;;0.90;0.60;;;;;;;18.06;67.44;99640.19;4967451;28;20523;-71
2022/05/24 08:19:34;;;;;;;1.70;0.80;;;;;;;18.10;67.61;99654.91;4971856;28;20420;-72
2022/05/24 08:22:00;;;;;;;0.33;0.33;;;;;;;18.15;66.12;99649.25;4973252;28;20412;-71
2022/05/24 08:24:25;;;;;;;0.80;0.30;;;;;;;17.96;65.41;99645.94;4965843;28;20406;-72
2022/05/24 08:26:50;;;;;;;0.70;0.43;;;;;;;18.11;65.57;99652.97;4972235;28;20427;-72
2022/05/24 08:29:15;;;;;;;0.70;0.17;;;;;;;18.10;64.59;99641.19;4962875;28;20408;-71
2022/05/24 08:31:41;;;;;;;0.30;0.20;;;;;;;18.24;65.06;99645.78;4967912;28;20404;-73
2022/05/24 08:34:07;;;;;;;0.60;0.20;;;;;;;18.36;63.64;99656.94;4990713;28;20425;-72
2022/05/24 08:36:32;;;;;;;0.50;0.20;;;;;;;18.27;62.97;99656.09;4972703;28;20412;-72
2022/05/24 08:38:58;;;;;;;1.10;0.20;;;;;;;18.30;63.45;99658.22;4975115;28;20907;-73
2022/05/24 08:41:51;;;;;;;0.63;0.30;;;;;;;18.31;62.82;99652.41;4972686;28;20426;-73
2022/05/24 08:50:08;;;;;;;1.40;0.22;;;;;;;18.86;62.09;99661.06;4972077;28;20436;-73
2022/05/24 08:52:39;;;;;;;0.60;0.30;;;;;;;18.80;60.64;99664.28;4970049;28;20801;-72
2022/05/24 08:55:06;;;;;;;0.30;0.10;;;;;;;18.85;60.49;99653.94;4978327;28;20514;-73
2022/05/24 08:57:52;;;;;;;1.00;0.20;;;;;;;18.91;60.16;99647.19;4968835;28;20911;-73
2022/05/24 09:00:22;;;;;;;1.90;0.20;;;;;;;18.90;59.79;99650.25;4973078;28;20462;-72
2022/05/24 09:02:48;;;;;;;0.90;0.30;;;;;;;18.92;59.37;99651.53;4985491;28;20475;-73
2022/05/24 09:05:35;;;;;;;2.72;0.60;;;;;;;18.94;59.14;99645.72;4974865;28;21425;-72
2022/05/24 09:08:15;;;;;;;0.80;0.30;;;;;;;18.95;59.24;99644.59;4970459;28;20409;-72
2022/05/24 09:11:13;;;;;;;0.30;0.30;;;;;;;19.02;59.09;99632.03;4973674;28;20416;-72
2022/05/24 09:14:20;;;;;;;0.30;0.20;;;;;;;19.21;57.75;99631.72;4987145;28;20464;-72
2022/05/24 09:16:57;;;;;;;0.20;0.20;;;;;;;19.35;56.36;99637.88;4965987;28;22129;-73
2022/05/24 09:19:30;;;;;;;0.43;0.20;;;;;;;19.58;57.29;99630.31;4966463;28;21004;-73
2022/05/24 09:21:55;;;;;;;1.10;0.22;;;;;;;19.76;57.00;99634.66;4969985;28;20424;-72
2022/05/24 09:24:48;;;;;;;0.50;0.13;;;;;;;19.84;56.73;99641.28;4972265;28;20427;-72
2022/05/24 09:27:17;;;;;;;0.70;0.10;;;;;;;19.58;56.53;99638.56;4973527;28;20470;-72
2022/05/24 09:30:03;;;;;;;0.20;0.20;;;;;;;19.48;56.90;99644.38;4988253;28;20946;-73
2022/05/24 09:32:32;;;;;;;0.40;0.22;;;;;;;19.57;56.32;99654.22;4969169;28;20408;-73
2022/05/24 09:35:08;;;;;;;0.80;0.50;;;;;;;19.77;55.02;99643.72;4972788;28;20474;-72
2022/05/24 09:37:34;;;;;;;1.25;0.20;;;;;;;19.99;55.61;99640.78;4964107;28;20514;-73
2022/05/24 09:40:01;;;;;;;1.40;0.30;;;;;;;20.22;55.22;99644.13;4970466;28;20420;-72
2022/05/24 09:42:30;;;;;;;0.40;0.20;;;;;;;20.40;54.76;99649.25;4967038;28;20418;-72
2022/05/24 09:45:09;;;;;;;0.88;0.30;;;;;;;20.67;54.60;99656.28;4971741;28;20538;-72
2022/05/24 09:47:53;;;;;;;0.50;0.20;;;;;;;20.95;53.08;99659.34;4958978;28;20423;-72
2022/05/24 09:50:31;;;;;;;0.20;0.20;;;;;;;20.88;53.42;99654.38;4960766;28;20923;-72
2022/05/24 09:53:02;;;;;;;0.80;0.30;;;;;;;21.09;52.20;99660.78;4960238;28;20467;-72
2022/05/24 09:55:30;;;;;;;0.40;0.15;;;;;;;21.81;48.53;99656.81;4969840;28;20455;-72
2022/05/24 09:58:17;;;;;;;0.80;0.28;;;;;;;22.52;47.99;99660.16;4968730;28;20511;-73
2022/05/24 10:01:27;;;;;;;2.25;0.40;;;;;;;23.46;46.83;99657.25;4969532;28;20420;-72
2022/05/24 10:03:53;;;;;;;3.45;0.20;;;;;;;24.49;44.66;99669.28;4964365;28;20499;-72
2022/05/24 10:06:25;;;;;;;0.13;0.13;;;;;;;25.18;42.25;99669.44;4970844;28;20493;-72
2022/05/24 10:08:56;;;;;;;0.30;0.10;;;;;;;25.41;41.21;99672.34;4957785;28;20460;-72
2022/05/24 10:11:43;;;;;;;0.60;0.20;;;;;;;26.28;37.67;99664.25;4965154;28;20891;-72
2022/05/24 10:14:27;;;;;;;1.90;0.20;;;;;;;26.56;37.41;99658.41;4967420;28;20431;-72
2022/05/24 10:17:06;;;;;;;1.08;0.25;;;;;;;26.62;36.99;99661.69;4970315;28;20427;-72
2022/05/24 10:19:45;;;;;;;0.40;0.10;;;;;;;27.28;35.24;99661.97;4973256;28;20496;-72
2022/05/24 10:22:28;;;;;;;0.38;0.10;;;;;;;27.51;34.88;99667.50;4953259;28;20489;-72
2022/05/24 10:25:16;;;;;;;0.87;0.20;;;;;;;27.84;34.77;99678.66;4955358;28;20428;-72
2022/05/24 10:28:04;;;;;;;0.90;0.10;;;;;;;27.03;34.74;99654.44;4949817;28;20416;-72
2022/05/24 10:31:02;;;;;;;4.25;0.30;;;;;;;26.31;36.63;99671.06;4969948;28;20420;-72
2022/05/24 10:39:39;;;;;;;1.00;0.30;;;;;;;26.52;34.91;99665.88;4958230;28;20411;-72
2022/05/24 10:42:26;;;;;;;1.73;0.20;;;;;;;25.34;36.82;99649.16;4956863;28;20508;-72
2022/05/24 10:44:59;;;;;;;3.00;0.20;;;;;;;26.05;36.89;99666.16;4953656;28;20504;-72
2022/05/24 10:47:34;;;;;;;0.17;0.10;;;;;;;26.85;34.07;99665.28;4957219;28;20515;-72
2022/05/24 10:50:06;;;;;;;0.90;0.10;;;;;;;27.30;33.17;99665.16;4952718;28;20417;-72
2022/05/24 10:53:00;;;;;;;0.85;0.20;;;;;;;28.17;32.46;99672.31;4954603;28;20412;-73
2022/05/24 10:55:30;;;;;;;1.20;0.15;;;;;;;28.72;30.45;99664.91;4985630;28;20489;-72
2022/05/24 10:58:00;;;;;;;0.70;0.10;;;;;;;28.90;31.21;99672.63;4985618;28;20408;-72
2022/05/24 11:01:04;;;;;;;1.48;0.28;;;;;;;28.89;30.20;99671.81;4964665;28;20445;-73
2022/05/24 11:03:42;;;;;;;1.48;0.20;;;;;;;29.03;29.87;99663.56;4958640;28;20831;-73
2022/05/24 11:06:21;;;;;;;2.30;0.30;;;;;;;28.43;30.84;99671.38;4958843;28;20454;-73
2022/05/24 11:08:51;;;;;;;0.13;0.10;;;;;;;28.97;30.57;99675.47;4953634;28;20425;-72
2022/05/24 11:11:35;;;;;;;2.20;0.20;;;;;;;29.43;29.42;99675.81;4953354;28;20452;-73
2022/05/24 11:14:11;;;;;;;0.70;0.20;;;;;;;29.59;29.64;99671.53;4960282;28;20433;-74
2022/05/24 11:16:45;;;;;;;0.60;0.20;;;;;;;29.78;29.35;99673.19;4975109;28;20418;-74
2022/05/24 11:19:17;;;;;;;0.30;0.10;;;;;;;29.98;29.41;99666.13;4973125;28;20406;-74
2022/05/24 11:21:50;;;;;;;2.60;0.50;;;;;;;30.20;28.84;99664.19;4973821;28;20492;-71
2022/05/24 11:24:34;;;;;;;0.67;0.20;;;;;;;30.25;28.94;99666.59;4983314;28;20400;-72
2022/05/24 11:27:06;;;;;;;1.80;0.20;;;;;;;30.08;29.41;99662.56;4974429;28;20926;-72
2022/05/24 11:29:48;;;;;;;0.30;0.22;;;;;;;30.04;29.30;99670.13;4973098;28;20442;-73
2022/05/24 11:32:28;;;;;;;1.75;0.30;;;;;;;29.93;28.41;99658.13;4966492;28;20416;-73
2022/05/24 11:34:59;;;;;;;0.40;0.15;;;;;;;29.97;28.77;99663.75;4963840;28;20514;-73
2022/05/24 11:37:30;;;;;;;1.20;0.20;;;;;;;29.88;29.55;99666.06;4985343;28;20418;-73
2022/05/24 11:39:56;;;;;;;0.30;0.30;;;;;;;29.86;29.50;99663.69;4980071;28;20412;-72
2022/05/24 11:42:21;;;;;;;0.70;0.20;;;;;;;29.74;29.17;99684.34;4970720;28;20422;-73
2022/05/24 11:44:48;;;;;;;1.80;0.10;;;;;;;29.47;29.22;99674.66;4972870;28;20491;-71
2022/05/24 11:47:34;;;;;;;0.10;0.10;;;;;;;29.66;29.32;99681.91;4968285;28;20416;-73
2022/05/24 11:50:05;;;;;;;2.20;0.10;;;;;;;29.55;29.01;99673.50;4971806;28;20451;-69
2022/05/24 11:53:02;;;;;;;0.30;0.10;;;;;;;29.85;28.85;99681.63;4951827;28;20416;-70
2022/05/24 11:55:56;;;;;;;1.80;0.20;;;;;;;29.30;28.75;99675.34;4962236;28;20930;-73
2022/05/24 11:58:50;;;;;;;0.40;0.10;;;;;;;28.96;29.18;99669.09;4945877;28;20457;-73
2022/05/24 12:01:15;;;;;;;2.00;0.40;;;;;;;29.42;30.16;99683.38;4962619;28;20421;-74
2022/05/24 12:10:31;;;;;;;0.70;0.10;;;;;;;28.73;29.65;99674.88;4959342;28;20466;-73
2022/05/24 12:13:02;;;;;;;1.08;0.30;;;;;;;27.83;30.69;99674.25;4951594;28;20427;-72
2022/05/24 12:15:30;;;;;;;0.47;0.10;;;;;;;27.69;31.57;99670.50;4956823;28;20479;-72
2022/05/24 12:17:59;;;;;;;1.20;0.20;;;;;;;28.68;30.32;99680.78;4960995;28;20422;-72
2022/05/24 12:20:33;;;;;;;0.50;0.17;;;;;;;29.11;28.13;99678.38;4957690;28;20445;-72
2022/05/24 12:23:04;;;;;;;0.10;0.10;;;;;;;28.99;27.43;99673.09;4959704;28;20956;-72
2022/05/24 12:25:50;;;;;;;0.10;0.00;;;;;;;29.20;28.50;99687.19;4959545;28;20957;-73
2022/05/24 12:28:16;;;;;;;0.50;0.10;;;;;;;29.25;29.09;99676.50;4960993;28;20423;-73
2022/05/24 12:30:47;;;;;;;1.05;0.30;;;;;;;29.10;29.90;99680.38;4965228;28;20451;-73
2022/05/24 12:33:35;;;;;;;1.08;0.40;;;;;;;28.62;29.28;99696.25;4970637;28;20481;-73
2022/05/24 12:36:06;;;;;;;2.00;0.20;;;;;;;27.80;29.78;99683.38;4969753;28;20412;-73
2022/05/24 12:38:33;;;;;;;0.70;0.20;;;;;;;27.89;31.13;99699.00;4963125;28;20918;-73